Patuxent River, MD

8:13 AM EDT on September 02, 2014 (GMT -0400)
Drum Point | Change Station
CLOSE
Current Station
Personal Weather Station
Location: Lusby, MD
Elevation: 55 ft
Nearby Weather Stations

Elev 55 ft 38.32 °N, 76.42 °W | Updated 3 minutes ago

Partly Cloudy
Partly Cloudy
78.0 °F
Feels Like 80 °F
N
2.0
Wind Variable Wind from West
Gusts 2.0 mph

Today
High -- | Low -- °F
--% Chance of Precip.
Yesterday
High -- | Low -- °F
Precip. -- in
6:36 AM 7:33 PM
Waxing Crescent, 51% visible
Pressure 29.99 in
Visibility 10.0 miles
Clouds Few 15000 ft
Few 25000 ft
Heat Index 80 °F
Dew Point 74 °F
Humidity 86%
Rainfall 0.00 in
Snow Depth Not available.
UV 1 out of 12
Pollen 9.80 out of 12
Air Quality Not available.
Flu Activity Not available.
METAR KNHK 021152Z 24006KT 10SM FEW150 FEW250 25/21 A2998 RMK AO2 SLP153 70001 T02500211 10256 20228 51012

More Conditions Fewer Conditions

Pressure 29.99 in
Visibility 10.0 miles
Clouds Few 15000 ft
Few 25000 ft
Heat Index 80 °F
Dew Point 74 °F
Humidity 86%
Rainfall 0.00 in
Snow Depth Not available.
UV 1 out of 12
Pollen 9.80 out of 12
Air Quality Not available.
Flu Activity Not available.
METAR KNHK 021152Z 24006KT 10SM FEW150 FEW250 25/21 A2998 RMK AO2 SLP153 70001 T02500211 10256 20228 51012

More Conditions Fewer Conditions

10-Day Weather Forecast

Almanac

Astronomy

Sep. 02, 2014 Rise Set
Actual Time 6:36 AM EDT 7:33 PM EDT
Civil Twilight 6:09 AM EDT 8:00 PM EDT
Nautical Twilight 5:36 AM EDT 8:32 PM EDT
Astronomical Twilight 5:03 AM EDT 9:06 PM EDT
Moon 2:12 PM EDT No Moon Set
Length of Visible Light 13h 51m
Length of Day
12h 57m
Tomorrow will be 2m 23s shorter.
Waxing Crescent, 51% of the Moon is Illuminated
Today
Waxing Crescent
Sep 8
Full
Sep 15
Last Quarter
Sep 24
New
Oct 1
First Quarter

Today's Extremes

State Highs State Lows

Community

WunderPhotos

Upload Photos

1,749,638 photos uploaded!

WunderBlogs® & News

By Dr. Jeff Masters
Director of Meteorology, Weather Underground
By Kari Strenfel
Meteorologist, Weather Underground
By Christopher C. Burt
Weather Historian, Weather Underground
September 2, 2014
September 2, 2014
September 2, 2014

Nearby

Snow Depth

Station Depth Elevation
No new snow has been reported.

Earthquake Activity

City Distance Mag. Time & Date
No recent earthquake activity has been reported nearby.
Minimum magnitude displayed is 2.5.

Coastal Water Temperatures

Place Temperature
Solomons Island, MD 80.1 °F
Lewisetta, VA 81.0 °F

Nearby Weather Stations